| time (UTC) | temp C | wind direction | speed KPH | gust KPH | rain 1hr cm | rain 24hr cm | rain mn cm | humidity % | barometer mb |
| 20260507141504 | 18 | 100 | 19.3 | 0.0 | 0.00 | 0.00 | 0.00 | 59 | 1013.0 |
| 20260507140004 | 18 | 110 | 19.3 | 0.0 | 0.00 | 0.00 | 0.00 | 59 | 1013.0 |
| 20260507134504 | 18 | 110 | 19.3 | 0.0 | 0.00 | 0.00 | 0.00 | 59 | 1013.0 |
| 20260507133004 | 18 | 110 | 20.9 | 0.0 | 0.00 | 0.00 | 0.00 | 63 | 1014.0 |
| 20260507131504 | 18 | 110 | 20.9 | 0.0 | 0.00 | 0.00 | 0.00 | 63 | 1014.0 |
| 20260507124504 | 18 | 120 | 20.9 | 0.0 | 0.00 | 0.00 | 0.00 | 63 | 1014.0 |
| 20260507123005 | 18 | 100 | 19.3 | 0.0 | 0.00 | 0.00 | 0.00 | 68 | 1014.0 |
| 20260507120005 | 18 | 90 | 20.9 | 0.0 | 0.00 | 0.00 | 0.00 | 63 | 1014.0 |
| 20260507114504 | 18 | 90 | 20.9 | 0.0 | 0.00 | 0.00 | 0.00 | 63 | 1014.0 |
| 20260507113005 | 18 | 100 | 20.9 | 0.0 | 0.00 | 0.00 | 0.00 | 63 | 1014.0 |
| 20260507111504 | 18 | 100 | 20.9 | 0.0 | 0.00 | 0.00 | 0.00 | 63 | 1014.0 |
| 20260507110005 | 17 | 80 | 22.5 | 0.0 | 0.00 | 0.00 | 0.00 | 67 | 1015.0 |
| 20260507104504 | 17 | 80 | 22.5 | 0.0 | 0.00 | 0.00 | 0.00 | 67 | 1015.0 |
| 20260507103005 | 18 | 90 | 20.9 | 0.0 | 0.00 | 0.00 | 0.00 | 63 | 1014.0 |
| 20260507101504 | 18 | 90 | 20.9 | 0.0 | 0.00 | 0.00 | 0.00 | 63 | 1014.0 |
| 20260507091504 | 17 | 100 | 20.9 | 0.0 | 0.00 | 0.00 | 0.00 | 67 | 1014.0 |
| 20260507090005 | 17 | 60 | 1.6 | 0.0 | 0.00 | 0.00 | 0.00 | 77 | 1014.0 |
| 20260507083005 | 17 | 350 | 8.0 | 0.0 | 0.00 | 0.00 | 0.00 | 72 | 1014.0 |
| 20260507081503 | 17 | 350 | 8.0 | 0.0 | 0.00 | 0.00 | 0.00 | 72 | 1014.0 |
| 20260507080004 | 15 | 330 | 11.3 | 0.0 | 0.00 | 0.00 | 0.00 | 76 | 1014.0 |
| 20260507064504 | 12 | 330 | 12.9 | 0.0 | 0.00 | 0.00 | 0.00 | 82 | 1013.0 |
| 20260507063004 | 12 | 330 | 12.9 | 0.0 | 0.00 | 0.00 | 0.00 | 82 | 1013.0 |
| 20260507061504 | 12 | 330 | 12.9 | 0.0 | 0.00 | 0.00 | 0.00 | 82 | 1013.0 |
| 20260507053004 | 12 | 340 | 9.7 | 0.0 | 0.00 | 0.00 | 0.00 | 87 | 1013.0 |
| 20260507050005 | 12 | 330 | 11.3 | 0.0 | 0.00 | 0.00 | 0.00 | 87 | 1013.0 |
| 20260507043004 | 12 | 330 | 11.3 | 0.0 | 0.00 | 0.00 | 0.00 | 87 | 1013.0 |
| 20260507041503 | 12 | 330 | 11.3 | 0.0 | 0.00 | 0.00 | 0.00 | 87 | 1013.0 |
| 20260507040005 | 12 | 330 | 11.3 | 0.0 | 0.00 | 0.00 | 0.00 | 87 | 1013.0 |
| 20260507034504 | 12 | 330 | 11.3 | 0.0 | 0.00 | 0.00 | 0.00 | 87 | 1013.0 |
| 20260507031515 | 13 | 330 | 9.7 | 0.0 | 0.00 | 0.00 | 0.00 | 82 | 1013.0 |
| 20260507030004 | 13 | 40 | 9.7 | 0.0 | 0.00 | 0.00 | 0.00 | 82 | 1013.0 |
| 20260507024503 | 13 | 40 | 9.7 | 0.0 | 0.00 | 0.00 | 0.00 | 82 | 1013.0 |
| 20260507021503 | 15 | 50 | 12.9 | 0.0 | 0.00 | 0.00 | 0.00 | 76 | 1013.0 |
| 20260507014503 | 13 | 350 | 9.7 | 0.0 | 0.00 | 0.00 | 0.00 | 82 | 1013.0 |
| 20260507013005 | 15 | 340 | 9.7 | 0.0 | 0.00 | 0.00 | 0.00 | 76 | 1014.0 |
| 20260507011503 | 15 | 340 | 9.7 | 0.0 | 0.00 | 0.00 | 0.00 | 76 | 1014.0 |
| 20260507004504 | 13 | 330 | 11.3 | 0.0 | 0.00 | 0.00 | 0.00 | 76 | 1014.0 |
| 20260507003005 | 13 | 330 | 8.0 | 0.0 | 0.00 | 0.00 | 0.00 | 76 | 1013.0 |
| 20260507001504 | 13 | 330 | 8.0 | 0.0 | 0.00 | 0.00 | 0.00 | 76 | 1013.0 |
| 20260507000004 | 13 | 330 | 8.0 | 0.0 | 0.00 | 0.00 | 0.00 | 76 | 1013.0 |
| 20260506230004 | 15 | 310 | 8.0 | 0.0 | 0.00 | 0.00 | 0.00 | 76 | 1014.0 |
| 20260506224504 | 15 | 310 | 8.0 | 0.0 | 0.00 | 0.00 | 0.00 | 76 | 1014.0 |
| 20260506223005 | 16 | 20 | 1.6 | 0.0 | 0.00 | 0.00 | 0.00 | 72 | 1013.0 |
| 20260506220005 | 17 | 0 | 1.6 | 0.0 | 0.00 | 0.00 | 0.00 | 72 | 1013.0 |
| 20260506214504 | 17 | 0 | 1.6 | 0.0 | 0.00 | 0.00 | 0.00 | 72 | 1013.0 |
| 20260506203004 | 17 | 0 | 3.2 | 0.0 | 0.00 | 0.00 | 0.00 | 63 | 1012.0 |
| 20260506201504 | 17 | 0 | 3.2 | 0.0 | 0.00 | 0.00 | 0.00 | 63 | 1012.0 |
| 20260506194504 | 17 | 0 | 3.2 | 0.0 | 0.00 | 0.00 | 0.00 | 63 | 1012.0 |
| 20260506193004 | 17 | 160 | 8.0 | 0.0 | 0.00 | 0.00 | 0.00 | 63 | 1011.0 |
| 20260506191503 | 17 | 160 | 8.0 | 0.0 | 0.00 | 0.00 | 0.00 | 63 | 1011.0 |
| 20260506190004 | 17 | 180 | 11.3 | 0.0 | 0.00 | 0.00 | 0.00 | 63 | 1011.0 |
| 20260506184504 | 17 | 180 | 11.3 | 0.0 | 0.00 | 0.00 | 0.00 | 63 | 1011.0 |
| 20260506181504 | 18 | 180 | 11.3 | 0.0 | 0.00 | 0.00 | 0.00 | 59 | 1011.0 |
| 20260506180005 | 18 | 190 | 11.3 | 0.0 | 0.00 | 0.00 | 0.00 | 55 | 1011.0 |
| 20260506174504 | 18 | 190 | 11.3 | 0.0 | 0.00 | 0.00 | 0.00 | 55 | 1011.0 |
| 20260506171504 | 18 | 180 | 11.3 | 0.0 | 0.00 | 0.00 | 0.00 | 55 | 1011.0 |
| 20260506164504 | 18 | 190 | 1.6 | 0.0 | 0.00 | 0.00 | 0.00 | 52 | 1011.0 |
| 20260506163005 | 18 | 190 | 19.3 | 0.0 | 0.00 | 0.00 | 0.00 | 55 | 1011.0 |
| 20260506160005 | 18 | 190 | 20.9 | 0.0 | 0.00 | 0.00 | 0.00 | 48 | 1011.0 |
| 20260506153004 | 20 | 190 | 20.9 | 0.0 | 0.00 | 0.00 | 0.00 | 49 | 1011.0 |
| 20260506151503 | 20 | 190 | 20.9 | 0.0 | 0.00 | 0.00 | 0.00 | 49 | 1011.0 |
| 20260506150004 | 20 | 190 | 1.6 | 0.0 | 0.00 | 0.00 | 0.00 | 49 | 1011.0 |
| 20260506144504 | 20 | 190 | 1.6 | 0.0 | 0.00 | 0.00 | 0.00 | 49 | 1011.0 |